createdAt,value
2022-08-20T00:02:16.560Z,4.20
2022-08-20T00:04:45.742Z,5.07
2022-08-20T00:07:14.535Z,6.63
2022-08-20T00:09:43.587Z,5.93
2022-08-20T00:12:13.576Z,4.67
2022-08-20T00:14:42.167Z,6.43
2022-08-20T00:17:11.957Z,5.10
2022-08-20T00:19:40.498Z,4.80
2022-08-20T00:22:08.956Z,4.83
2022-08-20T00:24:37.701Z,5.43
2022-08-20T00:27:06.266Z,6.33
2022-08-20T00:29:35.229Z,5.07
2022-08-20T00:32:03.797Z,6.20
2022-08-20T00:34:33.580Z,4.40
2022-08-20T00:37:02.062Z,5.27
2022-08-20T00:39:30.636Z,5.67
2022-08-20T00:41:59.373Z,5.77
2022-08-20T00:44:27.909Z,4.23
2022-08-20T00:46:56.522Z,5.17
2022-08-20T00:49:27.962Z,5.23
2022-08-20T00:52:02.196Z,5.60
2022-08-20T00:54:33.631Z,5.50
2022-08-20T00:57:04.911Z,6.23
2022-08-20T00:59:37.234Z,4.70
2022-08-20T01:02:09.101Z,4.83
2022-08-20T01:04:38.290Z,5.97
2022-08-20T01:07:08.501Z,5.17
2022-08-20T01:09:57.794Z,4.27
2022-08-20T01:12:28.982Z,6.77
2022-08-20T01:14:59.842Z,5.17
2022-08-20T01:17:30.111Z,6.03
2022-08-20T01:20:07.889Z,6.13
2022-08-20T01:23:00.190Z,5.97
2022-08-20T01:25:34.034Z,5.97
2022-08-20T01:28:04.792Z,4.87
2022-08-20T01:30:34.038Z,6.07
2022-08-20T01:33:02.899Z,5.47
2022-08-20T01:35:32.654Z,5.30
2022-08-20T01:38:01.382Z,5.83
2022-08-20T01:40:41.556Z,6.63
2022-08-20T01:43:12.346Z,5.20
2022-08-20T01:45:43.014Z,4.90
2022-08-20T01:48:12.070Z,7.33
2022-08-20T01:50:43.330Z,6.23
2022-08-20T01:53:20.108Z,5.13
2022-08-20T01:55:48.709Z,5.53
2022-08-20T01:58:18.460Z,4.73
2022-08-20T02:00:47.462Z,6.60
2022-08-20T02:03:16.003Z,4.73
2022-08-20T02:05:45.143Z,6.13
2022-08-20T02:08:13.580Z,6.10
2022-08-20T02:10:42.003Z,6.53
2022-08-20T02:13:10.502Z,5.10
2022-08-20T02:15:43.082Z,7.13
2022-08-20T02:18:14.252Z,6.33
2022-08-20T02:20:43.392Z,8.23
2022-08-20T02:23:13.032Z,8.80
2022-08-20T02:25:43.582Z,8.70
2022-08-20T02:28:14.127Z,8.73
2022-08-20T02:30:46.949Z,9.27
2022-08-20T02:33:18.193Z,8.07
2022-08-20T02:35:48.232Z,8.03
2022-08-20T02:38:17.020Z,8.83
2022-08-20T02:40:49.054Z,6.40
2022-08-20T02:43:20.169Z,5.87
2022-08-20T02:45:50.137Z,5.20
2022-08-20T02:48:20.893Z,7.57
2022-08-20T02:50:54.170Z,6.87
2022-08-20T02:53:23.434Z,5.93
2022-08-20T02:55:52.009Z,8.60
2022-08-20T02:58:21.322Z,6.27
2022-08-20T03:00:51.770Z,8.10
2022-08-20T03:03:22.607Z,7.97
2022-08-20T03:05:52.986Z,8.43
2022-08-20T03:08:22.609Z,11.13
2022-08-20T03:10:52.379Z,10.50
2022-08-20T03:13:21.634Z,10.27
2022-08-20T03:15:57.952Z,9.73
2022-08-20T03:18:30.189Z,9.47
2022-08-20T03:20:58.676Z,9.63
2022-08-20T03:23:27.158Z,9.17
2022-08-20T03:25:55.773Z,9.70
2022-08-20T03:28:24.278Z,6.43
2022-08-20T03:30:54.731Z,9.03
2022-08-20T03:33:23.565Z,8.50
2022-08-20T03:35:52.301Z,5.73
2022-08-20T03:38:33.234Z,6.73
2022-08-20T03:41:02.405Z,8.47
2022-08-20T03:43:31.334Z,7.10
2022-08-20T03:46:01.379Z,11.40
2022-08-20T03:48:30.209Z,8.47
2022-08-20T03:51:00.853Z,13.83
2022-08-20T03:53:31.535Z,13.03
2022-08-20T03:56:03.284Z,16.90
2022-08-20T03:58:35.883Z,15.50
2022-08-20T04:01:36.867Z,14.77
2022-08-20T04:03:58.686Z,15.53
2022-08-20T04:06:27.777Z,15.47
2022-08-20T04:08:56.281Z,16.10
2022-08-20T04:11:24.844Z,15.20
2022-08-20T04:13:53.290Z,16.60
2022-08-20T04:16:24.248Z,19.53
2022-08-20T04:19:01.335Z,17.07
2022-08-20T04:21:33.089Z,18.57
2022-08-20T04:24:02.271Z,19.10
2022-08-20T04:26:30.984Z,18.77
2022-08-20T04:28:59.491Z,19.10
2022-08-20T04:31:33.046Z,20.90
2022-08-20T04:34:02.178Z,18.90
2022-08-20T04:36:30.750Z,21.33
2022-08-20T04:38:59.260Z,18.90
2022-08-20T04:41:27.984Z,17.97
2022-08-20T04:43:58.032Z,17.50
2022-08-20T04:46:29.330Z,19.67
2022-08-20T04:48:58.162Z,20.60
2022-08-20T04:51:27.063Z,21.43
2022-08-20T04:53:57.411Z,21.47
2022-08-20T04:56:27.749Z,20.07
2022-08-20T04:58:59.068Z,21.10
2022-08-20T05:01:29.994Z,22.57
2022-08-20T05:03:59.202Z,22.03
2022-08-20T05:06:29.989Z,22.73
2022-08-20T05:08:59.720Z,23.23
2022-08-20T05:11:33.773Z,21.83
2022-08-20T05:14:05.425Z,27.03
2022-08-20T05:16:38.779Z,25.30
2022-08-20T05:19:08.640Z,28.47
2022-08-20T05:21:37.930Z,24.23
2022-08-20T05:24:06.788Z,33.60
2022-08-20T05:26:35.395Z,35.23
2022-08-20T05:29:06.748Z,31.53
2022-08-20T05:31:37.506Z,30.37
2022-08-20T05:34:09.812Z,28.00
2022-08-20T05:36:40.044Z,26.03
2022-08-20T05:39:09.313Z,27.27
2022-08-20T05:41:37.865Z,31.00
2022-08-20T05:44:10.034Z,28.70
2022-08-20T05:46:41.113Z,25.40
2022-08-20T05:49:10.016Z,30.10
2022-08-20T05:51:38.482Z,28.27
2022-08-20T05:54:07.395Z,29.43
2022-08-20T05:56:36.336Z,26.30
2022-08-20T05:59:07.138Z,22.10
2022-08-20T06:01:38.023Z,22.23
2022-08-20T06:04:26.743Z,27.53
2022-08-20T06:06:57.595Z,24.00
2022-08-20T06:09:31.246Z,22.73
2022-08-20T06:12:02.080Z,25.50
2022-08-20T06:14:31.160Z,27.40
2022-08-20T06:17:05.371Z,34.33
2022-08-20T06:19:36.516Z,27.60
2022-08-20T06:22:06.871Z,27.80
2022-08-20T06:24:46.855Z,23.70
2022-08-20T06:27:16.887Z,26.60
2022-08-20T06:29:45.668Z,25.33
2022-08-20T06:32:15.241Z,27.37
2022-08-20T06:34:49.824Z,23.60
2022-08-20T06:37:21.860Z,24.70
2022-08-20T06:39:50.884Z,23.57
2022-08-20T06:42:20.836Z,21.03
2022-08-20T06:44:50.901Z,22.93
2022-08-20T06:47:20.493Z,20.70
2022-08-20T06:49:50.311Z,21.23
2022-08-20T06:52:19.019Z,21.00
2022-08-20T06:54:48.057Z,23.27
2022-08-20T06:57:17.322Z,24.03
2022-08-20T06:59:49.037Z,20.90
2022-08-20T07:02:30.112Z,19.40
2022-08-20T07:05:00.481Z,17.97
2022-08-20T07:07:29.051Z,18.67
2022-08-20T07:10:01.643Z,18.67
2022-08-20T07:12:30.187Z,19.13
2022-08-20T07:14:58.665Z,18.67
2022-08-20T07:17:27.173Z,19.03
2022-08-20T07:19:55.584Z,18.60
2022-08-20T07:22:25.864Z,20.43
2022-08-20T07:24:54.303Z,20.47
2022-08-20T07:27:23.636Z,18.27
2022-08-20T07:30:12.879Z,19.07
2022-08-20T07:32:45.355Z,19.73
2022-08-20T07:35:15.578Z,17.90
2022-08-20T07:37:47.068Z,17.73
2022-08-20T07:40:18.239Z,18.00
2022-08-20T07:42:50.342Z,17.13
2022-08-20T07:45:19.487Z,16.93
2022-08-20T07:47:49.370Z,15.87
2022-08-20T07:50:20.161Z,15.63
2022-08-20T07:52:52.546Z,15.77
2022-08-20T07:55:22.416Z,17.07
2022-08-20T07:57:51.745Z,15.57
2022-08-20T08:00:24.301Z,15.53
2022-08-20T08:02:52.936Z,15.43
2022-08-20T08:05:21.669Z,16.70
2022-08-20T08:07:52.220Z,15.93
2022-08-20T08:10:23.627Z,18.63
2022-08-20T08:12:54.913Z,13.63
2022-08-20T08:15:25.242Z,14.23
2022-08-20T08:17:55.468Z,14.50
2022-08-20T08:20:24.361Z,12.47
2022-08-20T08:22:54.537Z,14.90
2022-08-20T08:25:23.056Z,13.63
2022-08-20T08:27:51.577Z,13.53
2022-08-20T08:30:20.799Z,13.03
2022-08-20T08:33:06.732Z,13.17
2022-08-20T08:35:35.356Z,12.17
2022-08-20T08:38:05.149Z,11.67
2022-08-20T08:40:35.147Z,12.20
2022-08-20T08:43:04.580Z,11.47
2022-08-20T08:45:36.777Z,14.30
2022-08-20T08:48:05.990Z,13.37
2022-08-20T08:50:54.005Z,12.83
2022-08-20T08:53:27.653Z,15.23
2022-08-20T08:55:56.143Z,12.43
2022-08-20T08:58:24.675Z,8.90
2022-08-20T09:00:56.371Z,11.33
2022-08-20T09:03:29.380Z,11.87
2022-08-20T09:06:02.153Z,12.27
2022-08-20T09:08:34.079Z,10.33
2022-08-20T09:11:04.415Z,13.20
2022-08-20T09:13:33.133Z,12.43
2022-08-20T09:16:01.910Z,8.87
2022-08-20T09:18:30.400Z,12.07
2022-08-20T09:20:59.017Z,12.60
2022-08-20T09:23:27.530Z,9.57
2022-08-20T09:25:57.563Z,9.80
2022-08-20T09:28:26.565Z,11.97
2022-08-20T09:31:01.302Z,10.93
2022-08-20T09:33:33.222Z,8.50
2022-08-20T09:36:01.715Z,9.37
2022-08-20T09:38:31.247Z,9.77
2022-08-20T09:41:01.168Z,8.67
2022-08-20T09:43:29.661Z,8.90
2022-08-20T09:45:58.122Z,9.27
2022-08-20T09:48:29.765Z,12.67
2022-08-20T09:51:01.312Z,9.80
2022-08-20T09:53:30.796Z,8.77
2022-08-20T09:56:01.234Z,8.57
2022-08-20T09:58:35.342Z,7.50
2022-08-20T10:01:08.123Z,9.00
2022-08-20T10:03:43.496Z,9.00
2022-08-20T10:06:14.736Z,7.70
2022-08-20T10:08:43.396Z,7.57
2022-08-20T10:11:13.413Z,8.07
2022-08-20T10:13:42.035Z,8.80
2022-08-20T10:16:10.511Z,8.50
2022-08-20T10:18:38.969Z,8.27
2022-08-20T10:21:10.717Z,9.93
2022-08-20T10:23:39.275Z,8.97
2022-08-20T10:26:08.822Z,7.30
2022-08-20T10:28:38.890Z,9.20
2022-08-20T10:31:08.288Z,10.70
2022-08-20T10:33:37.950Z,7.33
2022-08-20T10:36:10.842Z,9.63
2022-08-20T10:38:39.741Z,11.00
2022-08-20T10:41:08.961Z,9.63
2022-08-20T10:43:38.774Z,8.17
2022-08-20T10:46:07.561Z,8.03
2022-08-20T10:48:36.150Z,7.70
2022-08-20T10:51:04.898Z,7.60
2022-08-20T10:53:33.755Z,7.37
2022-08-20T10:56:02.462Z,8.50
2022-08-20T10:58:37.629Z,9.57
2022-08-20T11:01:10.450Z,7.43
2022-08-20T11:03:38.978Z,7.57
2022-08-20T11:06:07.928Z,8.73
2022-08-20T11:08:36.407Z,9.07
2022-08-20T11:11:05.857Z,8.73
2022-08-20T11:13:35.006Z,8.93
2022-08-20T11:16:04.984Z,7.00
2022-08-20T11:18:34.904Z,6.20
2022-08-20T11:21:03.629Z,11.93
2022-08-20T11:23:32.086Z,10.27
2022-08-20T11:26:01.873Z,11.23
2022-08-20T11:28:33.141Z,7.90
2022-08-20T11:31:02.341Z,9.03
2022-08-20T11:33:30.816Z,9.80
2022-08-20T11:36:00.903Z,10.33
2022-08-20T11:38:30.335Z,11.47
2022-08-20T11:40:59.308Z,11.57
2022-08-20T11:43:27.783Z,10.10
2022-08-20T11:45:57.292Z,11.67
2022-08-20T11:48:25.805Z,13.63
2022-08-20T11:50:55.220Z,11.63
2022-08-20T11:53:25.139Z,12.00
2022-08-20T11:55:54.003Z,11.80
2022-08-20T11:58:22.624Z,12.40
2022-08-20T12:00:51.198Z,12.17
2022-08-20T12:03:19.683Z,11.17
2022-08-20T12:05:48.866Z,10.17
2022-08-20T12:08:25.120Z,10.87
2022-08-20T12:10:59.148Z,11.67
2022-08-20T12:13:30.878Z,11.87
2022-08-20T12:16:16.246Z,11.37
2022-08-20T12:18:44.719Z,12.43
2022-08-20T12:21:13.204Z,12.83
2022-08-20T12:23:41.782Z,9.63
2022-08-20T12:26:11.952Z,10.97
2022-08-20T12:28:40.549Z,10.80
2022-08-20T12:31:08.973Z,10.47
2022-08-20T12:33:37.409Z,12.63
2022-08-20T12:36:06.370Z,12.57
2022-08-20T12:38:34.921Z,14.40
2022-08-20T12:41:03.348Z,16.77
2022-08-20T12:43:33.197Z,26.87
2022-08-20T12:46:01.633Z,16.30
2022-08-20T12:48:30.129Z,13.87
2022-08-20T12:50:58.629Z,17.53
2022-08-20T12:53:27.168Z,13.03
2022-08-20T12:55:55.635Z,12.90
2022-08-20T12:58:24.674Z,14.53
2022-08-20T13:00:54.453Z,14.50
2022-08-20T13:03:22.885Z,14.33
2022-08-20T13:05:51.327Z,16.30
2022-08-20T13:08:20.046Z,11.90
2022-08-20T13:10:48.815Z,12.07
2022-08-20T13:13:20.547Z,16.43
2022-08-20T13:15:51.061Z,14.27
2022-08-20T13:18:21.481Z,13.47
2022-08-20T13:20:50.275Z,14.20
2022-08-20T13:23:18.753Z,13.70
2022-08-20T13:25:47.451Z,17.53
2022-08-20T13:28:15.876Z,14.33
2022-08-20T13:30:44.326Z,18.43
2022-08-20T13:33:12.753Z,16.30
2022-08-20T13:35:42.550Z,16.87
2022-08-20T13:38:11.031Z,16.57
2022-08-20T13:40:40.186Z,12.17
2022-08-20T13:43:12.040Z,15.20
2022-08-20T13:45:41.806Z,16.23
2022-08-20T13:48:14.801Z,16.93
2022-08-20T13:50:47.292Z,16.33
2022-08-20T13:53:17.161Z,15.47
2022-08-20T13:55:45.911Z,15.10
2022-08-20T13:58:14.426Z,17.27
2022-08-20T14:00:42.994Z,14.43
2022-08-20T14:03:12.236Z,18.90
2022-08-20T14:05:42.491Z,15.37
2022-08-20T14:08:14.022Z,14.03
2022-08-20T14:10:43.593Z,12.03
2022-08-20T14:13:15.369Z,10.87
2022-08-20T14:15:44.690Z,8.20
2022-08-20T14:18:14.339Z,6.73
2022-08-20T14:20:45.571Z,5.07
2022-08-20T14:23:16.100Z,5.80
2022-08-20T14:25:46.686Z,5.50
2022-08-20T14:28:18.212Z,4.90
2022-08-20T14:30:52.572Z,5.87
2022-08-20T14:33:22.736Z,5.03
2022-08-20T14:35:51.191Z,5.37
2022-08-20T14:38:21.068Z,5.67
2022-08-20T14:40:50.413Z,5.30
2022-08-20T14:43:19.269Z,5.43
2022-08-20T14:45:47.842Z,11.30
2022-08-20T14:48:16.328Z,14.47
2022-08-20T14:50:44.758Z,7.83
2022-08-20T14:53:13.148Z,25.87
2022-08-20T14:55:42.962Z,15.13
2022-08-20T14:58:13.206Z,7.23
2022-08-20T15:00:42.947Z,5.90
2022-08-20T15:03:13.367Z,7.63
2022-08-20T15:05:42.009Z,10.90
2022-08-20T15:08:11.021Z,12.33
2022-08-20T15:10:40.245Z,9.17
2022-08-20T15:13:10.208Z,11.40
2022-08-20T15:15:39.416Z,14.97
2022-08-20T15:18:08.338Z,8.67
2022-08-20T15:20:37.955Z,9.90
2022-08-20T15:23:07.308Z,10.47
2022-08-20T15:25:37.901Z,8.40
2022-08-20T15:28:08.841Z,8.87
2022-08-20T15:30:39.784Z,13.50
2022-08-20T15:33:08.467Z,7.03
2022-08-20T15:35:37.316Z,6.30
2022-08-20T15:38:05.745Z,8.47
2022-08-20T15:40:34.252Z,6.77
2022-08-20T15:43:03.935Z,6.27
2022-08-20T15:45:33.278Z,7.07
2022-08-20T15:48:09.436Z,6.40
2022-08-20T15:50:57.813Z,8.57
2022-08-20T15:53:30.544Z,7.23
2022-08-20T15:56:06.114Z,6.57
2022-08-20T15:58:40.987Z,7.43
2022-08-20T16:01:24.226Z,6.50
2022-08-20T16:04:11.641Z,9.83
2022-08-20T16:06:41.101Z,7.00
2022-08-20T16:09:22.904Z,8.60
2022-08-20T16:11:53.506Z,5.20
2022-08-20T16:14:23.581Z,6.63
2022-08-20T16:17:01.239Z,8.13
2022-08-20T16:19:40.872Z,7.50
2022-08-20T16:22:12.588Z,6.93
2022-08-20T16:24:41.036Z,8.53
2022-08-20T16:27:14.648Z,6.07
2022-08-20T16:29:52.042Z,6.67
2022-08-20T16:32:35.053Z,5.23
2022-08-20T16:35:29.437Z,5.20
2022-08-20T16:38:03.869Z,6.43
2022-08-20T16:40:34.902Z,6.17
2022-08-20T16:43:06.089Z,5.63
2022-08-20T16:45:38.296Z,4.97
2022-08-20T16:48:12.436Z,6.67
2022-08-20T16:50:49.209Z,4.53
2022-08-20T16:53:20.735Z,5.30
2022-08-20T16:55:49.249Z,4.47
2022-08-20T16:58:17.891Z,5.77
2022-08-20T17:00:46.444Z,5.93
2022-08-20T17:03:33.535Z,6.00
2022-08-20T17:06:17.079Z,5.93
2022-08-20T17:08:50.818Z,5.57
2022-08-20T17:11:25.721Z,4.43
2022-08-20T17:14:05.933Z,7.17
2022-08-20T17:16:36.168Z,6.67
2022-08-20T17:19:10.560Z,5.60
2022-08-20T17:21:41.114Z,5.63
2022-08-20T17:24:16.844Z,7.27
2022-08-20T17:26:47.168Z,5.00
2022-08-20T17:29:19.212Z,6.50
2022-08-20T17:31:50.309Z,4.27
2022-08-20T17:34:22.421Z,4.93
2022-08-20T17:36:56.930Z,4.17
2022-08-20T17:39:27.404Z,3.60
2022-08-20T17:42:04.513Z,4.57
2022-08-20T17:44:37.776Z,3.63
2022-08-20T17:47:12.343Z,3.83
2022-08-20T17:49:44.857Z,6.00
2022-08-20T17:52:32.648Z,4.00
2022-08-20T17:55:02.887Z,4.77
2022-08-20T17:57:36.867Z,6.70
2022-08-20T18:00:09.757Z,4.50
2022-08-20T18:02:38.819Z,4.07
2022-08-20T18:05:12.101Z,5.10
2022-08-20T18:07:55.242Z,4.63
2022-08-20T18:10:28.234Z,4.43
2022-08-20T18:13:00.021Z,3.57
2022-08-20T18:15:31.268Z,3.80
2022-08-20T18:18:11.108Z,5.17
2022-08-20T18:21:01.004Z,4.50
2022-08-20T18:23:32.475Z,5.20
2022-08-20T18:26:05.549Z,4.77
2022-08-20T18:28:40.881Z,4.10
2022-08-20T18:31:10.502Z,6.33
2022-08-20T18:33:42.035Z,7.30
2022-08-20T18:36:13.605Z,5.23
2022-08-20T18:38:43.821Z,4.47
2022-08-20T18:41:15.895Z,6.43
2022-08-20T18:43:44.821Z,5.17
2022-08-20T18:46:21.031Z,4.50
2022-08-20T18:48:56.373Z,5.93
2022-08-20T18:51:30.161Z,6.77
2022-08-20T18:54:00.155Z,8.27
2022-08-20T18:56:37.457Z,4.33
2022-08-20T18:59:11.332Z,5.97
2022-08-20T19:01:41.549Z,4.60
2022-08-20T19:04:27.794Z,6.53
2022-08-20T19:06:59.075Z,6.50
2022-08-20T19:09:57.321Z,5.40
2022-08-20T19:12:39.233Z,5.17
2022-08-20T19:15:09.334Z,5.50
2022-08-20T19:18:01.913Z,6.77
2022-08-20T19:20:33.513Z,6.30
2022-08-20T19:23:06.816Z,5.20
2022-08-20T19:25:40.227Z,9.63
2022-08-20T19:28:18.865Z,4.83
2022-08-20T19:30:47.325Z,4.13
2022-08-20T19:33:16.140Z,4.83
2022-08-20T19:35:48.082Z,5.13
2022-08-20T19:38:17.626Z,8.00
2022-08-20T19:40:47.510Z,8.43
2022-08-20T19:43:21.711Z,6.37
2022-08-20T19:45:54.231Z,5.33
2022-08-20T19:48:32.767Z,5.00
2022-08-20T19:51:07.913Z,6.17
2022-08-20T19:53:38.610Z,7.37
2022-08-20T19:56:11.943Z,5.17
2022-08-20T19:58:40.665Z,8.27
2022-08-20T20:01:11.952Z,4.70
2022-08-20T20:03:40.553Z,5.20
2022-08-20T20:06:17.249Z,5.60
2022-08-20T20:08:51.777Z,7.60
2022-08-20T20:11:24.678Z,7.30
2022-08-20T20:13:53.786Z,5.00
2022-08-20T20:16:22.739Z,4.73
2022-08-20T20:19:15.654Z,5.80
2022-08-20T20:21:43.032Z,6.17
2022-08-20T20:24:12.275Z,7.10
2022-08-20T20:26:42.670Z,5.17
2022-08-20T20:29:13.688Z,4.57
2022-08-20T20:31:50.677Z,4.73
2022-08-20T20:34:25.889Z,5.57
2022-08-20T20:37:05.006Z,5.30
2022-08-20T20:39:36.055Z,5.80
2022-08-20T20:42:08.422Z,4.60
2022-08-20T20:44:38.269Z,4.47
2022-08-20T20:47:09.716Z,6.80
2022-08-20T20:49:49.207Z,6.47
2022-08-20T20:52:23.690Z,7.17
2022-08-20T20:54:53.336Z,6.00
2022-08-20T20:57:38.786Z,5.07
2022-08-20T21:00:12.036Z,4.50
2022-08-20T21:02:40.723Z,6.80
2022-08-20T21:05:10.477Z,4.80
2022-08-20T21:07:46.189Z,4.93
2022-08-20T21:10:24.452Z,4.33
2022-08-20T21:12:55.193Z,7.13
2022-08-20T21:15:25.585Z,3.90
2022-08-20T21:17:54.902Z,4.83
2022-08-20T21:20:23.895Z,4.40
2022-08-20T21:22:52.406Z,4.90
2022-08-20T21:25:23.815Z,4.63
2022-08-20T21:27:54.868Z,3.90
2022-08-20T21:30:24.447Z,4.00
2022-08-20T21:32:53.252Z,4.13
2022-08-20T21:35:21.992Z,5.53
2022-08-20T21:37:50.538Z,5.27
2022-08-20T21:40:21.739Z,5.43
2022-08-20T21:42:51.345Z,4.23
2022-08-20T21:45:21.483Z,5.43
2022-08-20T21:47:49.941Z,4.63
2022-08-20T21:50:19.078Z,4.97
2022-08-20T21:52:59.369Z,4.80
2022-08-20T21:55:30.052Z,5.07
2022-08-20T21:57:58.860Z,6.43
2022-08-20T22:01:02.669Z,5.37
2022-08-20T22:03:33.841Z,4.67
2022-08-20T22:06:07.061Z,6.80
2022-08-20T22:08:35.773Z,4.70
2022-08-20T22:11:06.127Z,4.73
2022-08-20T22:13:35.177Z,5.27
2022-08-20T22:16:06.859Z,5.00
2022-08-20T22:18:36.092Z,4.17
2022-08-20T22:21:08.332Z,7.67
2022-08-20T22:23:39.954Z,6.57
2022-08-20T22:26:08.944Z,5.67
2022-08-20T22:28:38.661Z,7.60
2022-08-20T22:31:08.726Z,9.97
2022-08-20T22:33:39.855Z,4.50
2022-08-20T22:36:08.793Z,5.47
2022-08-20T22:38:37.221Z,3.87
2022-08-20T22:41:09.531Z,9.23
2022-08-20T22:43:46.233Z,5.60
2022-08-20T22:46:28.554Z,5.73
2022-08-20T22:48:57.331Z,5.70
2022-08-20T22:51:30.249Z,6.50
2022-08-20T22:53:59.568Z,7.40
2022-08-20T22:56:29.913Z,5.17
2022-08-20T22:58:59.448Z,6.10
2022-08-20T23:01:30.014Z,6.23
2022-08-20T23:03:58.963Z,8.07
2022-08-20T23:06:28.197Z,5.57
2022-08-20T23:08:56.945Z,6.23
2022-08-20T23:11:25.360Z,5.83
2022-08-20T23:13:53.769Z,5.87
2022-08-20T23:16:22.184Z,4.50
2022-08-20T23:18:52.254Z,6.87
2022-08-20T23:21:20.758Z,5.47
2022-08-20T23:23:49.209Z,5.37
2022-08-20T23:26:21.181Z,5.07
2022-08-20T23:28:49.784Z,4.27
2022-08-20T23:31:18.659Z,4.30
2022-08-20T23:33:47.120Z,3.63
2022-08-20T23:36:17.867Z,3.40
2022-08-20T23:38:46.619Z,3.50
2022-08-20T23:41:15.206Z,4.00
2022-08-20T23:43:44.112Z,6.60
2022-08-20T23:46:13.213Z,3.37
2022-08-20T23:48:41.635Z,5.57
2022-08-20T23:51:10.245Z,3.40
2022-08-20T23:53:40.068Z,3.83
2022-08-20T23:56:08.605Z,4.00
2022-08-20T23:58:37.454Z,6.40
